Time;durP1;ratioP1;P1;durP2;ratioP2;P2;SDS_P1;SDS_P2;PMS_P1;PMS_P2;Temp;Humidity;BMP_temperature;BMP_pressure;BME280_temperature;BME280_humidity;BME280_pressure;Samples;Min_cycle;Max_cycle;Signal;HPM_P1;HPM_P2
2023/03/20 00:01:15;;;;;;;4.85;3.42;;;;;;;;;;5051573;28;20043;-66
2023/03/20 00:03:40;;;;;;;3.47;3.17;;;;;;;;;;5052509;28;20107;-66
2023/03/20 00:06:23;;;;;;;4.72;3.28;;;;;;;;;;5052604;28;20106;-65
2023/03/20 00:08:51;;;;;;;4.03;3.47;;;;;;;;;;5052339;28;20501;-66
2023/03/20 00:11:29;;;;;;;4.10;3.42;;;;;;;;;;5052254;28;20462;-66
2023/03/20 00:14:09;;;;;;;5.18;4.13;;;;;;;;;;5052274;28;20029;-66
2023/03/20 00:16:45;;;;;;;4.43;3.63;;;;;;;;;;5052249;28;20025;-67
2023/03/20 00:19:18;;;;;;;4.32;3.67;;;;;;;;;;5052543;28;20040;-65
2023/03/20 00:21:46;;;;;;;4.40;3.40;;;;;;;;;;5052186;28;20025;-66
2023/03/20 00:24:13;;;;;;;4.13;3.45;;;;;;;;;;5052205;28;20444;-67
2023/03/20 00:26:39;;;;;;;4.78;3.55;;;;;;;;;;5052136;28;20029;-66
2023/03/20 00:29:06;;;;;;;4.40;3.40;;;;;;;;;;5052126;28;20579;-66
2023/03/20 00:31:38;;;;;;;4.72;3.85;;;;;;;;;;5052052;28;20025;-66
2023/03/20 00:34:13;;;;;;;4.18;3.63;;;;;;;;;;5052376;28;20079;-66
2023/03/20 00:36:38;;;;;;;4.75;3.53;;;;;;;;;;5052158;28;20029;-65
2023/03/20 00:39:05;;;;;;;4.38;3.50;;;;;;;;;;5052059;28;20543;-66
2023/03/20 00:41:41;;;;;;;4.95;3.80;;;;;;;;;;5051993;28;20079;-66
2023/03/20 00:44:29;;;;;;;4.25;3.30;;;;;;;;;;5052315;28;20021;-65
2023/03/20 00:47:05;;;;;;;4.65;3.70;;;;;;;;;;5051945;28;20021;-66
2023/03/20 00:49:32;;;;;;;6.78;3.80;;;;;;;;;;5051906;28;20116;-65
2023/03/20 00:52:00;;;;;;;4.22;3.53;;;;;;;;;;5052011;28;20025;-66
2023/03/20 00:54:25;;;;;;;4.00;3.40;;;;;;;;;;5051972;28;20079;-66
2023/03/20 00:56:57;;;;;;;5.07;3.70;;;;;;;;;;5051975;28;20025;-66
2023/03/20 00:59:27;;;;;;;4.32;3.65;;;;;;;;;;5052183;28;20492;-67
2023/03/20 01:01:53;;;;;;;3.70;3.30;;;;;;;;;;5051949;28;20104;-65
2023/03/20 01:04:20;;;;;;;5.10;3.75;;;;;;;;;;5051906;28;20109;-66
2023/03/20 01:06:46;;;;;;;4.13;3.40;;;;;;;;;;5051989;28;20025;-66
2023/03/20 01:09:11;;;;;;;4.95;3.65;;;;;;;;;;5051725;28;20396;-67
2023/03/20 01:11:38;;;;;;;4.35;3.90;;;;;;;;;;5050620;28;20032;-66
2023/03/20 01:14:05;;;;;;;3.67;3.38;;;;;;;;;;5051839;28;20028;-66
2023/03/20 01:16:31;;;;;;;3.92;3.50;;;;;;;;;;5052118;28;20100;-66
2023/03/20 01:18:57;;;;;;;4.82;3.70;;;;;;;;;;5051733;28;20125;-67
2023/03/20 01:21:22;;;;;;;4.05;3.30;;;;;;;;;;5052054;28;20029;-65
2023/03/20 01:23:49;;;;;;;6.60;3.40;;;;;;;;;;5054123;28;20404;-65
2023/03/20 01:26:21;;;;;;;6.38;3.53;;;;;;;;;;5055365;28;20040;-66
2023/03/20 01:28:47;;;;;;;4.57;3.60;;;;;;;;;;5055198;28;20119;-66
2023/03/20 01:31:15;;;;;;;4.03;3.55;;;;;;;;;;5055326;28;20025;-66
2023/03/20 01:33:41;;;;;;;4.03;3.53;;;;;;;;;;5055451;28;20033;-65
2023/03/20 01:36:10;;;;;;;4.45;3.72;;;;;;;;;;5055273;28;20412;-66
2023/03/20 01:38:37;;;;;;;5.40;3.75;;;;;;;;;;5054941;28;20045;-66
2023/03/20 01:41:09;;;;;;;5.00;3.90;;;;;;;;;;5055102;28;20084;-66
2023/03/20 01:43:35;;;;;;;4.35;3.63;;;;;;;;;;5055279;28;20123;-66
2023/03/20 01:46:18;;;;;;;4.10;3.45;;;;;;;;;;5054963;28;20045;-66
2023/03/20 01:48:50;;;;;;;4.25;3.60;;;;;;;;;;5055140;28;20384;-66
2023/03/20 01:51:25;;;;;;;4.03;3.33;;;;;;;;;;5054884;28;20033;-66
2023/03/20 01:54:11;;;;;;;4.05;3.65;;;;;;;;;;5055087;28;20040;-65
2023/03/20 01:56:51;;;;;;;4.38;3.53;;;;;;;;;;5054792;28;20102;-66
2023/03/20 01:59:24;;;;;;;3.85;3.45;;;;;;;;;;5054737;28;20531;-66
2023/03/20 02:01:50;;;;;;;4.43;3.40;;;;;;;;;;5054634;28;20041;-66
2023/03/20 02:04:18;;;;;;;3.95;3.40;;;;;;;;;;5054567;28;20037;-66
2023/03/20 02:06:45;;;;;;;4.72;3.90;;;;;;;;;;5054542;28;20028;-66
2023/03/20 02:09:11;;;;;;;4.30;3.80;;;;;;;;;;5054387;28;20111;-66
2023/03/20 02:11:39;;;;;;;3.92;3.53;;;;;;;;;;5054420;28;20025;-66
2023/03/20 02:14:05;;;;;;;3.65;3.22;;;;;;;;;;5054446;28;20309;-65
2023/03/20 02:16:31;;;;;;;4.53;3.50;;;;;;;;;;5054333;28;20028;-65
2023/03/20 02:18:57;;;;;;;4.78;3.70;;;;;;;;;;5054320;28;20070;-66
2023/03/20 02:21:44;;;;;;;4.43;3.53;;;;;;;;;;5054319;28;20086;-64
2023/03/20 02:24:44;;;;;;;4.53;3.85;;;;;;;;;;5054310;28;20469;-65
2023/03/20 02:27:56;;;;;;;3.95;3.45;;;;;;;;;;5054262;28;20024;-66
2023/03/20 02:30:46;;;;;;;4.07;3.53;;;;;;;;;;5054201;28;20029;-66
2023/03/20 02:33:21;;;;;;;3.65;3.33;;;;;;;;;;5054172;28;20033;-65
2023/03/20 02:36:07;;;;;;;5.22;3.70;;;;;;;;;;5052962;28;20072;-65
2023/03/20 02:39:11;;;;;;;4.55;3.50;;;;;;;;;;5053859;28;20041;-65
2023/03/20 02:41:49;;;;;;;4.47;3.65;;;;;;;;;;5050745;28;20499;-65
2023/03/20 02:44:55;;;;;;;4.28;3.60;;;;;;;;;;5053938;28;20045;-66
2023/03/20 02:47:28;;;;;;;4.78;3.63;;;;;;;;;;5054083;28;20025;-66
2023/03/20 02:49:56;;;;;;;4.97;3.58;;;;;;;;;;5053745;28;20384;-66
2023/03/20 02:52:46;;;;;;;4.93;3.40;;;;;;;;;;5053722;28;20025;-66
2023/03/20 02:55:16;;;;;;;4.55;3.70;;;;;;;;;;5053735;28;20036;-66
2023/03/20 02:57:41;;;;;;;4.30;3.72;;;;;;;;;;5053697;28;20071;-67
2023/03/20 03:00:23;;;;;;;3.97;3.10;;;;;;;;;;5053601;28;20032;-66
2023/03/20 03:03:01;;;;;;;4.03;3.55;;;;;;;;;;5053598;28;20509;-66
2023/03/20 03:05:41;;;;;;;5.15;3.47;;;;;;;;;;5053548;28;20052;-67
2023/03/20 03:08:12;;;;;;;4.55;3.70;;;;;;;;;;5053517;28;20354;-64
2023/03/20 03:10:43;;;;;;;5.35;3.40;;;;;;;;;;5053332;28;20033;-66
2023/03/20 03:13:14;;;;;;;4.07;3.25;;;;;;;;;;5053392;28;20028;-67
2023/03/20 03:15:44;;;;;;;4.18;3.55;;;;;;;;;;5053282;28;20550;-66
2023/03/20 03:18:16;;;;;;;4.82;3.60;;;;;;;;;;5053320;28;20076;-65
2023/03/20 03:20:43;;;;;;;4.15;3.60;;;;;;;;;;5053408;28;20118;-66
2023/03/20 03:23:18;;;;;;;5.00;4.00;;;;;;;;;;5053083;28;20072;-65
2023/03/20 03:25:45;;;;;;;4.40;3.70;;;;;;;;;;5052972;28;20021;-65
2023/03/20 03:28:25;;;;;;;4.18;3.30;;;;;;;;;;5053016;28;20025;-66
2023/03/20 03:30:52;;;;;;;4.53;3.80;;;;;;;;;;5053034;28;20028;-66
2023/03/20 03:33:19;;;;;;;4.20;3.35;;;;;;;;;;5052923;28;20032;-65
2023/03/20 03:35:47;;;;;;;4.35;3.65;;;;;;;;;;5052838;28;20469;-65
2023/03/20 03:38:18;;;;;;;3.55;3.25;;;;;;;;;;5052760;28;20062;-65
2023/03/20 03:40:51;;;;;;;3.75;3.40;;;;;;;;;;5052811;28;20043;-64
2023/03/20 03:43:24;;;;;;;4.32;3.45;;;;;;;;;;5052762;28;20033;-64
2023/03/20 03:46:12;;;;;;;4.38;3.70;;;;;;;;;;5052521;28;20036;-65
2023/03/20 03:48:46;;;;;;;4.03;3.53;;;;;;;;;;5052475;28;20143;-65
2023/03/20 03:51:16;;;;;;;4.55;3.42;;;;;;;;;;5053083;28;20029;-66
2023/03/20 03:53:48;;;;;;;4.30;3.55;;;;;;;;;;5052968;28;20021;-65
2023/03/20 03:56:19;;;;;;;3.58;3.22;;;;;;;;;;5052930;28;20033;-64
2023/03/20 03:58:48;;;;;;;3.95;3.33;;;;;;;;;;5052594;28;20025;-66
2023/03/20 04:01:16;;;;;;;4.75;3.47;;;;;;;;;;5052872;28;20530;-64
2023/03/20 04:03:47;;;;;;;4.10;3.13;;;;;;;;;;5052716;28;20025;-66
2023/03/20 04:06:15;;;;;;;3.75;3.35;;;;;;;;;;5052491;28;20033;-65
2023/03/20 04:08:42;;;;;;;3.58;3.28;;;;;;;;;;5052363;28;20036;-65
2023/03/20 04:11:21;;;;;;;3.92;3.42;;;;;;;;;;5052513;28;20051;-67
2023/03/20 04:13:49;;;;;;;3.85;3.35;;;;;;;;;;5052326;28;20167;-64
2023/03/20 04:16:16;;;;;;;5.07;3.40;;;;;;;;;;5052357;28;20462;-67
2023/03/20 04:18:42;;;;;;;4.00;3.60;;;;;;;;;;5052254;28;20481;-66
2023/03/20 04:21:09;;;;;;;3.50;3.20;;;;;;;;;;5052330;28;20051;-66
2023/03/20 04:23:35;;;;;;;4.10;3.40;;;;;;;;;;5052545;28;20385;-67
2023/03/20 04:26:01;;;;;;;4.78;3.38;;;;;;;;;;5052575;28;20028;-66
2023/03/20 04:28:27;;;;;;;4.97;3.42;;;;;;;;;;5052084;28;20063;-66
2023/03/20 04:30:58;;;;;;;4.38;3.78;;;;;;;;;;5051354;28;20029;-66
2023/03/20 04:33:25;;;;;;;4.63;3.50;;;;;;;;;;5052147;28;20021;-67
2023/03/20 04:35:51;;;;;;;4.32;3.28;;;;;;;;;;5050910;28;20437;-67
2023/03/20 04:38:17;;;;;;;3.70;3.40;;;;;;;;;;5051906;28;20029;-65
2023/03/20 04:40:44;;;;;;;3.90;3.30;;;;;;;;;;5052447;28;20029;-64
2023/03/20 04:43:09;;;;;;;3.80;3.40;;;;;;;;;;5052022;28;20112;-65
2023/03/20 04:45:35;;;;;;;4.10;3.60;;;;;;;;;;5052143;28;20060;-67
2023/03/20 04:48:01;;;;;;;4.85;3.58;;;;;;;;;;5051975;28;20051;-65
2023/03/20 04:50:26;;;;;;;4.63;3.40;;;;;;;;;;5052160;28;20056;-66
2023/03/20 04:52:52;;;;;;;3.53;3.15;;;;;;;;;;5051913;28;20032;-66
2023/03/20 04:55:18;;;;;;;3.95;3.50;;;;;;;;;;5051986;28;20515;-65
2023/03/20 04:57:44;;;;;;;3.97;3.58;;;;;;;;;;5052967;28;20021;-66
2023/03/20 05:00:10;;;;;;;3.65;3.33;;;;;;;;;;5055863;28;20535;-65
2023/03/20 05:02:36;;;;;;;4.03;3.30;;;;;;;;;;5055762;28;20107;-66
2023/03/20 05:05:01;;;;;;;4.03;3.22;;;;;;;;;;5055753;28;20053;-66
2023/03/20 05:07:27;;;;;;;3.63;3.00;;;;;;;;;;5055675;28;20025;-66
2023/03/20 05:09:52;;;;;;;3.55;3.10;;;;;;;;;;5055680;28;20029;-66
2023/03/20 05:12:18;;;;;;;4.80;3.30;;;;;;;;;;5055688;28;20032;-66
2023/03/20 05:14:44;;;;;;;6.80;3.47;;;;;;;;;;5055641;28;20033;-66
2023/03/20 05:17:09;;;;;;;3.90;3.30;;;;;;;;;;5055540;28;20053;-65
2023/03/20 05:19:35;;;;;;;3.70;3.20;;;;;;;;;;5055436;28;20029;-66
2023/03/20 05:22:01;;;;;;;3.85;3.08;;;;;;;;;;5054247;28;20078;-65
2023/03/20 05:24:27;;;;;;;4.47;3.47;;;;;;;;;;5055399;28;20088;-67
2023/03/20 05:26:53;;;;;;;5.47;3.38;;;;;;;;;;5055295;28;20025;-66
2023/03/20 05:29:19;;;;;;;3.83;3.28;;;;;;;;;;5055111;28;20039;-68
2023/03/20 05:31:45;;;;;;;3.97;3.30;;;;;;;;;;5055269;28;20047;-65
2023/03/20 05:34:11;;;;;;;4.20;3.60;;;;;;;;;;5055132;28;20021;-65
2023/03/20 05:36:37;;;;;;;4.47;3.63;;;;;;;;;;5055136;28;20025;-65
2023/03/20 05:39:03;;;;;;;3.72;3.20;;;;;;;;;;5054859;28;20102;-67
2023/03/20 05:41:29;;;;;;;3.95;3.55;;;;;;;;;;5055039;28;20029;-66
2023/03/20 05:43:54;;;;;;;3.72;3.28;;;;;;;;;;5054960;28;20079;-66
2023/03/20 05:46:21;;;;;;;3.38;2.92;;;;;;;;;;5054938;28;20032;-66
2023/03/20 05:48:47;;;;;;;3.47;2.97;;;;;;;;;;5054853;28;20057;-66
2023/03/20 05:51:13;;;;;;;3.50;3.20;;;;;;;;;;5054934;28;20102;-67
2023/03/20 05:53:38;;;;;;;3.55;3.22;;;;;;;;;;5055187;28;20025;-66
2023/03/20 05:56:04;;;;;;;3.65;3.30;;;;;;;;;;5054767;28;20052;-66
2023/03/20 05:58:30;;;;;;;3.55;3.17;;;;;;;;;;5055055;28;20030;-66
2023/03/20 06:00:57;;;;;;;3.75;3.35;;;;;;;;;;5054658;28;20047;-66
2023/03/20 06:03:22;;;;;;;3.80;3.45;;;;;;;;;;5054597;28;20493;-65
2023/03/20 06:05:48;;;;;;;3.50;3.20;;;;;;;;;;5054598;28;20032;-66
2023/03/20 06:08:14;;;;;;;3.10;2.80;;;;;;;;;;5054437;28;20033;-65
2023/03/20 06:10:40;;;;;;;3.92;3.15;;;;;;;;;;5054429;28;20550;-65
2023/03/20 06:13:06;;;;;;;3.90;2.97;;;;;;;;;;5054322;28;20025;-66
2023/03/20 06:15:32;;;;;;;3.75;3.33;;;;;;;;;;5054324;28;20025;-66
2023/03/20 06:18:01;;;;;;;3.05;2.72;;;;;;;;;;5054255;28;20104;-67
2023/03/20 06:20:27;;;;;;;3.33;3.00;;;;;;;;;;5054256;28;20500;-68
2023/03/20 06:22:55;;;;;;;3.85;3.22;;;;;;;;;;5054209;28;20037;-66
2023/03/20 06:25:21;;;;;;;4.05;3.00;;;;;;;;;;5054360;28;20025;-67
2023/03/20 06:27:47;;;;;;;4.32;3.20;;;;;;;;;;5054033;28;20388;-64
2023/03/20 06:30:14;;;;;;;3.78;3.38;;;;;;;;;;5053985;28;20040;-64
2023/03/20 06:32:40;;;;;;;3.78;2.90;;;;;;;;;;5053855;28;20039;-65
2023/03/20 06:35:06;;;;;;;3.38;3.08;;;;;;;;;;5052682;28;20029;-65
2023/03/20 06:37:35;;;;;;;4.10;3.20;;;;;;;;;;5053931;28;20021;-65
2023/03/20 06:40:02;;;;;;;5.80;3.42;;;;;;;;;;5053684;28;20041;-66
2023/03/20 06:42:28;;;;;;;4.03;3.10;;;;;;;;;;5053807;28;20029;-65
2023/03/20 06:44:53;;;;;;;3.35;3.05;;;;;;;;;;5053867;28;20100;-66
2023/03/20 06:47:19;;;;;;;4.22;3.40;;;;;;;;;;5053709;28;20056;-66
2023/03/20 06:49:45;;;;;;;3.13;2.83;;;;;;;;;;5053639;28;20083;-66
2023/03/20 06:52:16;;;;;;;3.35;3.00;;;;;;;;;;5053924;28;20025;-66
2023/03/20 06:54:42;;;;;;;3.97;3.30;;;;;;;;;;5053944;28;20357;-66
2023/03/20 06:57:08;;;;;;;3.83;3.00;;;;;;;;;;5053490;28;20040;-66
2023/03/20 06:59:33;;;;;;;3.45;2.92;;;;;;;;;;5053496;28;20119;-66
2023/03/20 07:01:59;;;;;;;2.95;2.65;;;;;;;;;;5049596;28;20036;-66
2023/03/20 07:04:25;;;;;;;3.20;2.90;;;;;;;;;;5049328;28;20028;-65
2023/03/20 07:06:50;;;;;;;3.88;3.20;;;;;;;;;;5053383;28;20488;-66
2023/03/20 07:09:16;;;;;;;4.00;3.10;;;;;;;;;;5053409;28;20029;-66
2023/03/20 07:11:42;;;;;;;3.95;3.00;;;;;;;;;;5052110;28;20033;-65
2023/03/20 07:14:08;;;;;;;3.72;2.63;;;;;;;;;;5052079;28;20036;-65
2023/03/20 07:16:33;;;;;;;4.07;3.03;;;;;;;;;;5042804;28;20379;-66
2023/03/20 07:18:59;;;;;;;3.22;2.78;;;;;;;;;;5030162;28;20030;-66
2023/03/20 07:21:25;;;;;;;3.97;3.17;;;;;;;;;;5031040;28;20025;-65
2023/03/20 07:23:51;;;;;;;3.15;2.90;;;;;;;;;;5031476;28;20508;-66
2023/03/20 07:26:16;;;;;;;4.20;3.25;;;;;;;;;;5031393;28;20367;-66
2023/03/20 07:28:42;;;;;;;3.17;2.92;;;;;;;;;;5031465;28;20037;-67
2023/03/20 07:31:24;;;;;;;3.35;3.05;;;;;;;;;;5031452;28;20534;-67
2023/03/20 07:33:50;;;;;;;3.47;3.03;;;;;;;;;;5031453;28;20029;-67
2023/03/20 07:36:16;;;;;;;3.30;2.92;;;;;;;;;;5031368;28;20041;-68
2023/03/20 07:38:41;;;;;;;3.92;3.13;;;;;;;;;;5031314;28;20056;-67
2023/03/20 07:41:07;;;;;;;3.42;3.10;;;;;;;;;;5013652;28;20489;-66
2023/03/20 07:43:33;;;;;;;2.85;2.65;;;;;;;;;;5038592;28;20027;-66
2023/03/20 07:46:06;;;;;;;3.80;3.30;;;;;;;;;;5050376;28;20045;-65
2023/03/20 07:48:32;;;;;;;2.97;2.65;;;;;;;;;;5046031;28;20033;-66
2023/03/20 07:50:58;;;;;;;3.03;2.65;;;;;;;;;;5050481;28;20083;-66
2023/03/20 07:53:24;;;;;;;3.45;3.15;;;;;;;;;;5048344;28;20586;-65
2023/03/20 07:55:50;;;;;;;3.38;2.88;;;;;;;;;;5050843;28;20029;-65
2023/03/20 07:58:16;;;;;;;3.92;3.20;;;;;;;;;;5049202;28;20043;-65
2023/03/20 08:00:42;;;;;;;3.20;2.90;;;;;;;;;;5051005;28;20043;-65
2023/03/20 08:03:08;;;;;;;3.75;3.05;;;;;;;;;;5049666;28;20025;-64
2023/03/20 08:05:34;;;;;;;3.67;3.33;;;;;;;;;;5050804;28;20381;-66
2023/03/20 08:07:59;;;;;;;3.00;2.80;;;;;;;;;;5050816;28;20033;-65
2023/03/20 08:10:25;;;;;;;4.00;3.22;;;;;;;;;;5049175;28;20408;-65
2023/03/20 08:12:51;;;;;;;5.88;3.25;;;;;;;;;;5047357;28;20056;-65
2023/03/20 08:15:17;;;;;;;6.75;3.08;;;;;;;;;;5049523;28;20035;-64
2023/03/20 08:17:46;;;;;;;4.35;3.35;;;;;;;;;;5049626;28;20102;-65
2023/03/20 08:20:13;;;;;;;3.22;2.78;;;;;;;;;;5047462;28;20421;-66
2023/03/20 08:22:39;;;;;;;4.25;3.08;;;;;;;;;;5049051;28;20029;-66
2023/03/20 08:25:07;;;;;;;5.90;3.40;;;;;;;;;;5048196;28;20031;-65
2023/03/20 08:27:33;;;;;;;3.72;2.90;;;;;;;;;;5049139;28;20112;-64
2023/03/20 08:29:59;;;;;;;4.75;3.22;;;;;;;;;;5049189;28;20542;-65
2023/03/20 08:32:25;;;;;;;5.28;2.90;;;;;;;;;;5048318;28;20112;-66
2023/03/20 08:34:51;;;;;;;3.92;3.00;;;;;;;;;;5054599;28;20455;-64
2023/03/20 08:37:16;;;;;;;4.18;2.90;;;;;;;;;;5052551;28;20032;-64
2023/03/20 08:39:43;;;;;;;3.78;2.80;;;;;;;;;;5053800;28;20076;-64
2023/03/20 08:42:09;;;;;;;4.50;2.88;;;;;;;;;;5051089;28;20025;-65
2023/03/20 08:44:35;;;;;;;4.45;3.13;;;;;;;;;;5054281;28;20025;-65
2023/03/20 08:47:01;;;;;;;5.25;2.75;;;;;;;;;;5054564;28;20532;-66
2023/03/20 08:49:27;;;;;;;3.50;2.80;;;;;;;;;;5054258;28;20037;-65
2023/03/20 08:51:52;;;;;;;4.63;3.00;;;;;;;;;;5051251;28;20090;-65
2023/03/20 08:54:18;;;;;;;3.13;2.78;;;;;;;;;;5053440;28;20033;-65
2023/03/20 08:56:44;;;;;;;3.33;3.03;;;;;;;;;;5054262;28;20032;-65
2023/03/20 08:59:10;;;;;;;3.33;3.03;;;;;;;;;;5052765;28;20520;-65
2023/03/20 09:01:39;;;;;;;3.47;2.92;;;;;;;;;;5053170;28;20089;-65
2023/03/20 09:04:05;;;;;;;3.90;2.88;;;;;;;;;;5052723;28;20032;-65
2023/03/20 09:06:31;;;;;;;3.42;2.92;;;;;;;;;;5052838;28;20025;-64
2023/03/20 09:08:57;;;;;;;3.53;2.90;;;;;;;;;;5050874;28;20044;-65
2023/03/20 09:11:23;;;;;;;3.42;2.80;;;;;;;;;;5053789;28;20040;-66
2023/03/20 09:13:48;;;;;;;4.82;3.13;;;;;;;;;;5054045;28;20114;-67
2023/03/20 09:16:14;;;;;;;4.18;3.13;;;;;;;;;;5052204;28;20060;-67
2023/03/20 09:18:40;;;;;;;3.03;2.72;;;;;;;;;;5052280;28;20485;-67
2023/03/20 09:21:06;;;;;;;4.40;2.95;;;;;;;;;;5052150;28;20025;-67
2023/03/20 09:23:32;;;;;;;3.70;3.05;;;;;;;;;;5052760;28;20483;-67
2023/03/20 09:25:58;;;;;;;3.30;3.00;;;;;;;;;;5053298;28;20108;-67
2023/03/20 09:28:26;;;;;;;3.22;2.92;;;;;;;;;;5052962;28;20040;-67
2023/03/20 09:30:56;;;;;;;4.10;3.10;;;;;;;;;;5035747;28;20051;-67
2023/03/20 09:33:21;;;;;;;;;;;;;;;;;;5054178;28;20073;-67
2023/03/20 09:35:47;;;;;;;3.42;3.00;;;;;;;;;;5053615;28;20395;-68
2023/03/20 09:38:13;;;;;;;4.22;2.78;;;;;;;;;;5052930;28;20033;-67
2023/03/20 09:41:01;;;;;;;3.92;3.10;;;;;;;;;;5053481;28;20029;-66
2023/03/20 09:43:51;;;;;;;3.58;3.10;;;;;;;;;;5051484;28;20127;-67
2023/03/20 09:46:26;;;;;;;3.38;2.90;;;;;;;;;;5052471;28;20037;-67
2023/03/20 09:49:01;;;;;;;4.25;3.40;;;;;;;;;;5052811;28;20067;-66
2023/03/20 09:51:41;;;;;;;3.50;2.97;;;;;;;;;;5050211;28;20021;-67
2023/03/20 09:54:34;;;;;;;5.25;3.40;;;;;;;;;;5050670;28;20033;-66
2023/03/20 09:57:01;;;;;;;3.20;2.90;;;;;;;;;;5049780;28;20052;-66
2023/03/20 09:59:28;;;;;;;4.95;3.08;;;;;;;;;;5052638;28;20029;-66
2023/03/20 10:01:58;;;;;;;5.35;3.33;;;;;;;;;;5052546;28;20056;-66
2023/03/20 10:04:28;;;;;;;;;;;;;;;;;;5053472;28;20032;-67
2023/03/20 10:06:55;;;;;;;3.10;2.73;;;;;;;;;;5053183;28;20364;-67
2023/03/20 10:09:26;;;;;;;5.93;3.35;;;;;;;;;;5052656;28;20047;-67
2023/03/20 10:11:52;;;;;;;4.63;3.50;;;;;;;;;;5052852;28;20476;-68
2023/03/20 10:14:56;;;;;;;5.05;3.50;;;;;;;;;;5052251;28;20056;-69
2023/03/20 10:17:42;;;;;;;4.68;3.60;;;;;;;;;;5030235;28;20037;-68
2023/03/20 10:20:12;;;;;;;7.88;3.70;;;;;;;;;;5030143;28;20063;-67
2023/03/20 10:22:44;;;;;;;9.95;3.70;;;;;;;;;;5043981;28;20033;-67
2023/03/20 10:25:49;;;;;;;10.02;4.03;;;;;;;;;;5052620;28;20075;-67
2023/03/20 10:28:24;;;;;;;9.15;4.38;;;;;;;;;;5010469;28;20030;-67
2023/03/20 10:31:11;;;;;;;11.43;4.07;;;;;;;;;;5029828;28;20046;-68
2023/03/20 10:33:59;;;;;;;15.82;4.82;;;;;;;;;;5033077;28;20037;-67
2023/03/20 10:36:52;;;;;;;9.68;4.80;;;;;;;;;;5032291;28;20033;-67
2023/03/20 10:39:33;;;;;;;5.32;4.00;;;;;;;;;;5047957;28;20093;-68
2023/03/20 10:42:05;;;;;;;9.43;4.50;;;;;;;;;;5050542;28;20358;-69
2023/03/20 10:44:42;;;;;;;7.25;3.70;;;;;;;;;;5050603;28;20037;-68
2023/03/20 10:47:15;;;;;;;11.85;4.55;;;;;;;;;;5050612;28;20029;-68
2023/03/20 10:50:06;;;;;;;7.93;3.80;;;;;;;;;;5050112;28;20094;-67
2023/03/20 10:52:35;;;;;;;6.18;4.22;;;;;;;;;;5052184;28;20105;-67
2023/03/20 10:55:09;;;;;;;12.10;4.50;;;;;;;;;;5051444;28;20365;-65
2023/03/20 10:57:40;;;;;;;5.95;4.70;;;;;;;;;;5049328;28;20021;-67
2023/03/20 11:00:12;;;;;;;7.63;4.50;;;;;;;;;;5050534;28;20120;-67
2023/03/20 11:02:38;;;;;;;9.93;4.55;;;;;;;;;;5051967;28;20420;-67
2023/03/20 11:05:30;;;;;;;6.78;4.10;;;;;;;;;;5050345;28;20033;-68
2023/03/20 11:08:10;;;;;;;11.73;4.72;;;;;;;;;;5051898;28;20108;-69
2023/03/20 11:10:38;;;;;;;5.30;4.22;;;;;;;;;;5050940;28;20036;-67
2023/03/20 11:13:26;;;;;;;7.30;4.65;;;;;;;;;;5045691;28;20072;-67
2023/03/20 11:15:53;;;;;;;8.60;4.90;;;;;;;;;;5051981;28;20140;-68
2023/03/20 11:18:19;;;;;;;6.72;4.47;;;;;;;;;;5051601;28;20056;-67
2023/03/20 11:20:54;;;;;;;8.10;4.30;;;;;;;;;;5051559;28;20470;-67
2023/03/20 11:23:30;;;;;;;7.78;4.80;;;;;;;;;;5051542;28;20045;-67
2023/03/20 11:26:13;;;;;;;16.05;5.40;;;;;;;;;;5051535;28;20025;-67
2023/03/20 11:28:52;;;;;;;13.57;5.20;;;;;;;;;;5050755;28;20028;-70
2023/03/20 11:31:24;;;;;;;17.00;4.88;;;;;;;;;;5050664;28;20036;-68
2023/03/20 11:34:07;;;;;;;12.93;5.43;;;;;;;;;;5050118;28;20108;-68
2023/03/20 11:36:35;;;;;;;9.32;5.03;;;;;;;;;;5050638;28;20035;-67
2023/03/20 11:39:20;;;;;;;11.77;5.18;;;;;;;;;;5048919;28;20051;-67
2023/03/20 11:41:54;;;;;;;6.40;4.55;;;;;;;;;;5050550;28;20041;-68
2023/03/20 11:44:25;;;;;;;7.25;4.68;;;;;;;;;;5051359;28;20029;-65
2023/03/20 11:47:10;;;;;;;14.05;4.78;;;;;;;;;;5051027;28;20025;-69
2023/03/20 11:49:55;;;;;;;6.43;4.60;;;;;;;;;;5051219;28;20037;-69
2023/03/20 11:52:31;;;;;;;9.07;4.93;;;;;;;;;;5051467;28;20396;-69
2023/03/20 11:54:58;;;;;;;9.73;5.32;;;;;;;;;;5050918;28;20017;-69
2023/03/20 11:57:32;;;;;;;12.43;5.25;;;;;;;;;;5050953;28;20049;-68
2023/03/20 12:00:09;;;;;;;10.75;4.97;;;;;;;;;;5050959;28;20056;-69
2023/03/20 12:02:36;;;;;;;8.43;4.82;;;;;;;;;;5050847;28;20070;-68
2023/03/20 12:05:26;;;;;;;8.75;5.45;;;;;;;;;;5048094;28;20431;-68
2023/03/20 12:07:56;;;;;;;7.13;4.80;;;;;;;;;;5049652;28;20095;-68
2023/03/20 12:10:26;;;;;;;8.25;4.75;;;;;;;;;;5049623;28;20036;-68
2023/03/20 12:13:03;;;;;;;5.82;4.35;;;;;;;;;;5050598;28;20024;-68
2023/03/20 12:15:35;;;;;;;9.18;5.10;;;;;;;;;;5049537;28;20059;-68
2023/03/20 12:18:16;;;;;;;9.98;5.38;;;;;;;;;;5048108;28;20184;-68
2023/03/20 12:21:09;;;;;;;10.30;4.72;;;;;;;;;;5050739;28;20029;-68
2023/03/20 12:23:51;;;;;;;8.88;4.50;;;;;;;;;;5030987;28;20041;-68
2023/03/20 12:26:27;;;;;;;7.45;4.78;;;;;;;;;;5030905;28;20030;-68
2023/03/20 12:29:30;;;;;;;6.65;4.85;;;;;;;;;;5031248;28;20478;-68
2023/03/20 12:32:26;;;;;;;9.40;5.15;;;;;;;;;;5031194;28;20033;-69
2023/03/20 12:35:26;;;;;;;8.77;5.10;;;;;;;;;;5029943;28;20044;-69
2023/03/20 12:37:52;;;;;;;6.30;5.03;;;;;;;;;;5017670;28;20056;-68
2023/03/20 12:40:21;;;;;;;10.15;5.68;;;;;;;;;;5030568;28;20045;-69
2023/03/20 12:42:53;;;;;;;8.68;4.97;;;;;;;;;;5038350;28;20055;-69
2023/03/20 12:45:20;;;;;;;8.50;4.90;;;;;;;;;;5049514;28;20064;-70
2023/03/20 12:48:04;;;;;;;9.52;5.00;;;;;;;;;;5050467;28;20071;-70
2023/03/20 12:50:41;;;;;;;8.18;6.03;;;;;;;;;;5049914;28;20198;-69
2023/03/20 12:53:13;;;;;;;13.02;7.70;;;;;;;;;;5046175;28;20508;-70
2023/03/20 12:56:00;;;;;;;16.75;7.95;;;;;;;;;;5050325;28;20037;-70
2023/03/20 12:58:51;;;;;;;19.40;8.88;;;;;;;;;;5050692;28;20032;-70
2023/03/20 13:01:41;;;;;;;15.93;8.55;;;;;;;;;;5050233;28;20051;-70
2023/03/20 13:04:54;;;;;;;17.75;8.13;;;;;;;;;;5042964;28;20374;-69
2023/03/20 13:07:35;;;;;;;16.45;8.25;;;;;;;;;;5023906;28;20083;-70
2023/03/20 13:10:06;;;;;;;13.32;7.40;;;;;;;;;;5030313;28;20033;-69
2023/03/20 13:13:00;;;;;;;22.67;7.75;;;;;;;;;;5030308;28;20025;-69
2023/03/20 13:16:05;;;;;;;12.95;7.57;;;;;;;;;;5034045;28;20033;-69
2023/03/20 13:18:58;;;;;;;13.38;7.05;;;;;;;;;;5050687;28;20487;-68
2023/03/20 13:21:41;;;;;;;12.10;7.13;;;;;;;;;;5052786;28;20033;-67
2023/03/20 13:24:15;;;;;;;22.02;7.45;;;;;;;;;;5054170;28;20029;-68
2023/03/20 13:26:54;;;;;;;10.43;7.38;;;;;;;;;;5053876;28;20108;-68
2023/03/20 13:29:32;;;;;;;12.88;6.72;;;;;;;;;;5050332;28;20481;-68
2023/03/20 13:32:23;;;;;;;18.00;6.40;;;;;;;;;;5053823;28;20478;-68
2023/03/20 13:34:48;;;;;;;9.63;5.72;;;;;;;;;;5053532;28;20569;-69
2023/03/20 13:37:22;;;;;;;13.13;6.78;;;;;;;;;;5053674;28;20054;-68
2023/03/20 13:39:51;;;;;;;23.25;6.68;;;;;;;;;;5050400;28;20057;-69
2023/03/20 13:42:20;;;;;;;15.10;6.90;;;;;;;;;;5053815;28;20620;-68
2023/03/20 13:44:48;;;;;;;11.30;6.47;;;;;;;;;;5053460;28;20079;-69
2023/03/20 13:47:27;;;;;;;14.07;5.80;;;;;;;;;;5068787;28;20040;-70
2023/03/20 13:49:56;;;;;;;16.17;6.40;;;;;;;;;;5053273;28;20045;-68
2023/03/20 13:52:27;;;;;;;9.90;6.10;;;;;;;;;;5052189;28;20029;-70
2023/03/20 13:54:52;;;;;;;8.82;5.82;;;;;;;;;;5051871;28;20037;-70
2023/03/20 13:58:02;;;;;;;11.05;6.25;;;;;;;;;;5049121;28;20030;-70
2023/03/20 14:00:59;;;;;;;14.95;5.88;;;;;;;;;;5033180;28;20037;-71
2023/03/20 14:03:42;;;;;;;12.02;5.45;;;;;;;;;;5023261;28;20481;-72
2023/03/20 14:06:17;;;;;;;10.13;5.90;;;;;;;;;;5033314;28;20026;-71
2023/03/20 14:08:47;;;;;;;14.98;5.85;;;;;;;;;;5033335;28;20108;-71
2023/03/20 14:11:19;;;;;;;;;;;;;;;;;;5033778;28;20055;-69
2023/03/20 14:13:55;;;;;;;10.77;6.07;;;;;;;;;;5033189;28;19966;-71
2023/03/20 14:16:21;;;;;;;11.82;6.18;;;;;;;;;;5047416;28;20045;-73
2023/03/20 14:18:48;;;;;;;17.38;6.05;;;;;;;;;;5053121;28;20021;-72
2023/03/20 14:21:19;;;;;;;13.82;6.05;;;;;;;;;;5051597;28;20108;-69
2023/03/20 14:24:01;;;;;;;9.55;5.72;;;;;;;;;;5052864;28;20396;-74
2023/03/20 14:26:42;;;;;;;13.25;7.07;;;;;;;;;;5052695;28;20037;-68
2023/03/20 14:29:10;;;;;;;12.70;6.05;;;;;;;;;;5052599;28;20036;-68
2023/03/20 14:31:40;;;;;;;12.55;6.13;;;;;;;;;;5052514;28;20064;-69
2023/03/20 14:34:12;;;;;;;15.85;6.88;;;;;;;;;;5046914;28;20025;-69
2023/03/20 14:37:00;;;;;;;10.48;6.75;;;;;;;;;;5043959;28;20041;-70
2023/03/20 14:39:49;;;;;;;11.65;6.63;;;;;;;;;;5032412;28;20116;-68
2023/03/20 14:42:20;;;;;;;13.60;6.43;;;;;;;;;;5032828;28;20470;-69
2023/03/20 14:45:25;;;;;;;14.10;6.47;;;;;;;;;;5040157;28;20454;-72
2023/03/20 14:48:20;;;;;;;8.70;5.57;;;;;;;;;;5044349;28;20041;-71
2023/03/20 14:50:49;;;;;;;13.73;7.07;;;;;;;;;;5058343;28;20112;-68
2023/03/20 14:53:24;;;;;;;11.38;7.25;;;;;;;;;;5050966;28;20036;-71
2023/03/20 14:55:50;;;;;;;8.57;6.70;;;;;;;;;;5051730;28;20033;-70
2023/03/20 14:58:42;;;;;;;14.88;6.57;;;;;;;;;;5051425;28;20362;-68
2023/03/20 15:01:20;;;;;;;8.48;5.55;;;;;;;;;;5051218;28;20068;-67
2023/03/20 15:04:07;;;;;;;16.67;7.50;;;;;;;;;;5052307;28;20029;-68
2023/03/20 15:06:34;;;;;;;13.73;7.13;;;;;;;;;;5051343;28;20060;-69
2023/03/20 15:09:09;;;;;;;11.02;7.32;;;;;;;;;;5051872;28;20029;-69
2023/03/20 15:11:35;;;;;;;12.68;7.70;;;;;;;;;;5050714;28;20056;-70